Time;durP1;ratioP1;P1;durP2;ratioP2;P2;SDS_P1;SDS_P2;PMS_P1;PMS_P2;Temp;Humidity;BMP_temperature;BMP_pressure;BME280_temperature;BME280_humidity;BME280_pressure;Samples;Min_cycle;Max_cycle;Signal;HPM_P1;HPM_P2
2023/10/05 03:59:40;;;;;;;6.93;3.85;;;;;;;12.55;86.95;101510.09;5606441;31;77288;-55
2023/10/05 04:02:43;;;;;;;10.10;3.90;;;;;;;12.55;86.95;101510.09;5583627;31;33394;-55
2023/10/05 04:05:46;;;;;;;7.47;3.90;;;;;;;12.16;95.79;101515.06;5583932;32;33595;-55
2023/10/05 04:08:57;;;;;;;9.23;3.55;;;;;;;12.03;84.43;101516.34;5587098;31;34221;-55
2023/10/05 04:12:01;;;;;;;7.62;3.55;;;;;;;12.25;81.04;101513.50;5603462;31;33593;-55
2023/10/05 04:15:09;;;;;;;6.43;3.30;;;;;;;12.16;81.21;101510.50;5602050;31;33539;-55
2023/10/05 04:18:14;;;;;;;8.23;3.30;;;;;;;12.14;81.59;101518.00;5600452;31;33565;-55
2023/10/05 04:21:23;;;;;;;8.13;3.95;;;;;;;12.24;96.11;101522.63;5603625;31;33580;-55
2023/10/05 04:24:27;;;;;;;6.62;3.65;;;;;;;12.25;86.52;101523.44;5603182;31;33653;-55
2023/10/05 04:27:30;;;;;;;6.03;3.33;;;;;;;12.15;93.57;101527.72;5603322;31;33596;-55
2023/10/05 04:30:33;;;;;;;10.27;4.00;;;;;;;12.23;82.71;101529.06;5603390;31;33706;-56
2023/10/05 04:33:36;;;;;;;8.35;3.67;;;;;;;12.28;88.64;101533.66;5603455;31;33694;-57
2023/10/05 04:36:39;;;;;;;8.90;3.85;;;;;;;12.34;100.00;101530.72;5617230;31;34365;-57
2023/10/05 04:39:43;;;;;;;6.45;3.85;;;;;;;12.35;86.72;101539.59;5623065;31;34161;-57
2023/10/05 04:42:45;;;;;;;7.50;3.90;;;;;;;12.62;80.24;101537.53;5623137;31;33638;-57
2023/10/05 04:45:48;;;;;;;8.77;4.10;;;;;;;12.51;79.69;101535.88;5622443;31;33665;-57
2023/10/05 04:49:02;;;;;;;6.55;3.83;;;;;;;12.39;79.51;101543.41;5622840;31;33200;-57
2023/10/05 04:52:07;;;;;;;8.80;4.72;;;;;;;12.34;80.23;101538.78;5622490;31;33507;-57
2023/10/05 04:55:23;;;;;;;12.45;5.07;;;;;;;12.30;81.64;101551.16;5623150;31;33599;-57
2023/10/05 04:58:52;;;;;;;12.20;5.05;;;;;;;12.40;78.62;101551.19;5617363;31;34357;-57
2023/10/05 05:02:00;;;;;;;10.73;5.10;;;;;;;12.34;79.70;101551.44;5602451;31;33517;-57
2023/10/05 05:05:21;;;;;;;10.95;5.18;;;;;;;12.45;92.20;101558.47;5602758;31;33380;-57
2023/10/05 05:08:24;;;;;;;10.27;5.03;;;;;;;12.29;79.76;101565.66;5614607;31;34369;-57
2023/10/05 05:11:26;;;;;;;12.45;5.07;;;;;;;12.16;92.81;101561.56;5589179;31;33709;-57
2023/10/05 05:14:33;;;;;;;8.52;4.62;;;;;;;12.07;88.87;101559.66;5590358;31;34314;-57
2023/10/05 05:17:35;;;;;;;10.75;5.03;;;;;;;12.22;100.00;101562.41;5605854;31;33806;-57
2023/10/05 05:20:38;;;;;;;13.38;5.18;;;;;;;12.11;88.32;101574.19;5609197;31;34335;-57
2023/10/05 05:23:41;;;;;;;12.35;5.10;;;;;;;12.21;80.71;101569.66;5607402;31;33658;-57
2023/10/05 05:26:46;;;;;;;12.37;5.00;;;;;;;12.27;80.87;101575.06;5603541;31;33631;-57
2023/10/05 05:29:51;;;;;;;10.25;4.68;;;;;;;12.20;85.99;101567.22;5589583;31;34301;-57
2023/10/05 05:32:54;;;;;;;9.50;4.85;;;;;;;12.06;82.35;101564.22;5588118;31;33425;-57
2023/10/05 05:35:56;;;;;;;13.25;4.60;;;;;;;12.08;87.26;101553.19;5588106;31;33536;-57
2023/10/05 05:38:59;;;;;;;15.98;5.43;;;;;;;12.11;82.88;101563.41;5588129;31;33657;-57
2023/10/05 05:42:06;;;;;;;8.07;4.45;;;;;;;12.27;80.61;101575.87;5589378;31;33864;-57
2023/10/05 05:45:15;;;;;;;15.65;5.18;;;;;;;12.28;100.00;101584.75;5593999;31;33759;-56
2023/10/05 05:48:18;;;;;;;14.65;5.20;;;;;;;12.18;87.94;101567.47;5588042;31;34264;-57
2023/10/05 05:51:23;;;;;;;21.58;6.25;;;;;;;12.33;90.93;101576.72;5588249;31;33645;-57
2023/10/05 05:54:29;;;;;;;11.45;4.87;;;;;;;12.31;85.18;101570.78;5588532;31;34381;-57
2023/10/05 05:57:33;;;;;;;14.93;4.72;;;;;;;12.38;83.82;101568.66;5588808;31;33661;-57
2023/10/05 06:00:35;;;;;;;9.23;4.47;;;;;;;12.42;79.82;101567.06;5569428;32;33904;-57
2023/10/05 06:03:38;;;;;;;7.93;3.83;;;;;;;12.52;81.16;101575.19;5583307;31;33768;-57
2023/10/05 06:06:42;;;;;;;10.18;3.97;;;;;;;12.67;79.80;101571.72;5588888;31;33714;-57
2023/10/05 06:09:45;;;;;;;8.85;4.00;;;;;;;12.73;77.37;101559.09;5589335;31;33857;-57
2023/10/05 06:12:50;;;;;;;7.12;3.95;;;;;;;12.77;76.25;101560.16;5589120;31;35181;-57
2023/10/05 06:15:53;;;;;;;8.13;4.47;;;;;;;12.81;81.64;101563.94;5589740;31;34363;-57
2023/10/05 06:18:55;;;;;;;9.55;4.12;;;;;;;12.96;75.65;101568.56;5595000;31;34516;-57
2023/10/05 06:21:58;;;;;;;13.65;4.40;;;;;;;13.09;84.58;101565.34;5602308;31;33706;-57
2023/10/05 06:25:00;;;;;;;13.57;4.50;;;;;;;13.08;76.27;101559.16;5584005;31;32454;-57
2023/10/05 06:28:03;;;;;;;13.05;4.05;;;;;;;13.20;76.30;101558.87;5578122;31;33571;-57
2023/10/05 06:31:05;;;;;;;11.65;4.05;;;;;;;13.27;75.86;101551.38;5577614;31;34092;-57
2023/10/05 06:34:09;;;;;;;10.40;3.62;;;;;;;13.31;75.81;101559.72;5576772;31;34363;-57
2023/10/05 06:37:11;;;;;;;6.93;3.58;;;;;;;13.46;80.90;101553.53;5584514;31;33624;-57
2023/10/05 06:40:14;;;;;;;17.20;4.40;;;;;;;13.65;86.15;101554.59;5588211;31;33244;-57
2023/10/05 06:43:17;;;;;;;11.10;3.65;;;;;;;13.76;75.50;101541.91;5584854;31;34405;-57
2023/10/05 06:46:26;;;;;;;12.88;4.18;;;;;;;13.84;74.84;101542.16;5586556;31;33695;-57
2023/10/05 06:49:28;;;;;;;13.40;3.72;;;;;;;13.84;75.46;101547.53;5588910;31;33665;-57
2023/10/05 06:52:31;;;;;;;11.25;3.78;;;;;;;14.06;87.54;101541.81;5588342;31;33498;-57
2023/10/05 06:55:34;;;;;;;12.02;4.03;;;;;;;14.17;76.70;101548.00;5588720;31;34257;-57
2023/10/05 06:58:36;;;;;;;7.32;3.72;;;;;;;14.21;76.75;101543.66;5588457;31;33524;-57
2023/10/05 07:01:39;;;;;;;7.55;3.97;;;;;;;14.36;78.58;101539.25;5588630;31;33625;-56
2023/10/05 07:04:42;;;;;;;10.48;4.15;;;;;;;14.58;88.44;101539.72;5592219;31;34387;-57
2023/10/05 07:07:45;;;;;;;8.75;3.70;;;;;;;14.77;86.46;101542.59;5578639;31;34292;-56
2023/10/05 07:10:48;;;;;;;7.65;3.62;;;;;;;14.85;75.30;101552.78;5568900;32;34352;-56
2023/10/05 07:13:51;;;;;;;6.37;3.50;;;;;;;15.07;72.87;101540.78;5568855;32;33665;-57
2023/10/05 07:16:55;;;;;;;7.47;3.12;;;;;;;15.16;71.88;101534.44;5579411;31;33346;-56
2023/10/05 07:19:58;;;;;;;7.12;3.80;;;;;;;15.28;70.49;101544.91;5592508;31;34329;-56
2023/10/05 07:23:01;;;;;;;5.97;3.22;;;;;;;15.25;70.74;101545.47;5578921;31;33669;-55
2023/10/05 07:26:07;;;;;;;6.25;3.25;;;;;;;15.38;73.49;101535.91;5572721;31;34293;-56
2023/10/05 07:29:10;;;;;;;9.23;3.50;;;;;;;15.45;74.64;101547.19;5577272;31;34308;-56
2023/10/05 07:32:34;;;;;;;6.78;3.33;;;;;;;15.52;73.77;101534.16;5583432;31;34278;-56
2023/10/05 07:35:38;;;;;;;7.17;4.00;;;;;;;15.58;71.23;101540.31;5579904;31;33663;-56
2023/10/05 07:38:41;;;;;;;8.77;3.70;;;;;;;15.85;75.72;101535.19;5585283;31;33665;-56
2023/10/05 07:41:45;;;;;;;10.23;3.95;;;;;;;16.03;72.01;101538.25;5574971;31;33574;-56
2023/10/05 07:44:48;;;;;;;10.88;4.35;;;;;;;16.21;74.65;101541.00;5577386;31;34271;-56
2023/10/05 07:47:51;;;;;;;9.35;4.30;;;;;;;16.44;82.56;101535.84;5584357;31;34311;-56
2023/10/05 07:50:53;;;;;;;8.93;3.75;;;;;;;16.43;73.74;101535.03;5587270;31;33629;-56
2023/10/05 07:53:55;;;;;;;7.75;3.70;;;;;;;16.58;71.28;101533.19;5584288;31;33593;-56
2023/10/05 07:57:01;;;;;;;7.28;3.70;;;;;;;16.70;73.30;101536.28;5583458;31;33617;-56
2023/10/05 08:00:05;;;;;;;6.65;3.37;;;;;;;16.75;71.51;101538.13;5576153;31;33590;-57
2023/10/05 08:03:12;;;;;;;7.20;3.60;;;;;;;16.71;75.08;101542.50;5572223;31;34350;-56
2023/10/05 08:06:15;;;;;;;7.78;3.58;;;;;;;16.67;63.60;101540.38;5572439;31;33485;-57
2023/10/05 08:09:20;;;;;;;7.20;3.12;;;;;;;16.70;73.16;101541.69;5578514;31;33701;-57
2023/10/05 08:12:23;;;;;;;9.70;3.27;;;;;;;16.90;74.17;101546.03;5571324;31;33684;-56
2023/10/05 08:15:26;;;;;;;10.15;3.17;;;;;;;17.06;72.89;101546.63;5577252;31;33199;-56
2023/10/05 08:18:30;;;;;;;6.45;2.95;;;;;;;17.09;70.51;101538.69;5581616;31;34409;-56
2023/10/05 08:21:32;;;;;;;4.85;2.67;;;;;;;17.24;63.05;101540.34;5569524;31;33751;-56
2023/10/05 08:24:35;;;;;;;7.40;3.10;;;;;;;17.28;74.62;101540.53;5574574;31;33765;-57
2023/10/05 08:27:42;;;;;;;19.67;3.78;;;;;;;17.21;61.65;101551.78;5585175;31;33776;-57
2023/10/05 08:31:04;;;;;;;5.97;2.90;;;;;;;17.19;57.98;101548.56;5578098;31;34393;-57
2023/10/05 08:34:08;;;;;;;6.65;3.00;;;;;;;17.38;64.90;101530.34;5576808;31;33682;-57
2023/10/05 08:37:13;;;;;;;5.07;2.78;;;;;;;17.49;62.16;101535.59;5593358;31;33587;-57
2023/10/05 08:43:41;;;;;;;6.97;2.75;;;;;;;17.57;57.82;101534.91;5569378;31;34256;-56
2023/10/05 08:46:43;;;;;;;9.63;2.78;;;;;;;17.61;59.74;101533.19;5580342;31;33848;-56
2023/10/05 08:49:46;;;;;;;8.48;2.33;;;;;;;17.53;59.31;101531.97;5578361;31;34375;-56
2023/10/05 08:52:48;;;;;;;9.23;2.37;;;;;;;17.51;55.53;101539.59;5572498;31;33630;-57
2023/10/05 08:55:52;;;;;;;5.15;2.33;;;;;;;17.52;55.51;101529.59;5581957;31;33214;-57
2023/10/05 08:58:59;;;;;;;8.88;2.55;;;;;;;17.51;55.07;101536.88;5569021;31;33654;-58
2023/10/05 09:02:08;;;;;;;5.25;2.42;;;;;;;17.54;54.50;101530.06;5580238;31;32315;-56
2023/10/05 09:05:15;;;;;;;8.10;2.80;;;;;;;17.56;59.11;101538.72;5581668;31;34546;-56
2023/10/05 09:08:21;;;;;;;5.65;2.08;;;;;;;17.63;53.81;101533.72;5580947;31;33463;-56
2023/10/05 09:11:32;;;;;;;7.15;2.80;;;;;;;17.63;53.56;101531.00;5583690;31;34436;-57
2023/10/05 09:14:38;;;;;;;6.80;2.70;;;;;;;17.64;54.09;101527.16;5586934;31;33945;-57
2023/10/05 09:17:58;;;;;;;5.00;2.50;;;;;;;17.71;53.39;101521.34;5584142;31;33637;-57
2023/10/05 09:21:03;;;;;;;7.45;2.60;;;;;;;17.74;56.67;101510.69;5586089;31;33769;-57
2023/10/05 09:24:20;;;;;;;5.18;2.60;;;;;;;17.89;59.99;101506.94;5589359;31;33691;-57
2023/10/05 09:27:26;;;;;;;6.05;2.70;;;;;;;18.05;60.71;101500.09;5591826;31;33582;-57
2023/10/05 09:30:29;;;;;;;5.15;2.22;;;;;;;18.05;51.90;101510.16;5584497;31;33639;-57
2023/10/05 09:33:34;;;;;;;5.25;2.50;;;;;;;18.10;63.11;101498.37;5576557;31;34402;-57
2023/10/05 09:36:36;;;;;;;8.65;2.67;;;;;;;18.23;54.26;101492.91;5581954;31;34322;-57
2023/10/05 09:39:44;;;;;;;9.90;2.92;;;;;;;18.21;51.74;101487.00;5583466;31;34331;-57
2023/10/05 09:42:47;;;;;;;4.72;2.40;;;;;;;18.25;49.34;101487.19;5588408;31;34310;-57
2023/10/05 09:45:54;;;;;;;6.85;2.28;;;;;;;18.34;47.88;101490.78;5589239;31;33738;-57
2023/10/05 09:49:02;;;;;;;8.13;2.97;;;;;;;18.43;48.51;101483.53;5570773;31;34388;-57
2023/10/05 09:52:08;;;;;;;6.35;2.53;;;;;;;18.61;49.42;101480.94;5586178;31;33212;-57
2023/10/05 09:55:12;;;;;;;5.93;2.50;;;;;;;18.67;48.12;101480.53;5581180;31;33746;-57
2023/10/05 09:58:18;;;;;;;6.37;2.10;;;;;;;18.71;52.89;101473.38;5586814;31;33700;-57
2023/10/05 10:01:21;;;;;;;4.20;2.08;;;;;;;18.72;47.29;101476.94;5578215;31;34473;-58
2023/10/05 10:04:35;;;;;;;4.78;2.30;;;;;;;18.77;46.86;101477.63;5582854;31;33697;-57
2023/10/05 10:07:39;;;;;;;6.82;2.20;;;;;;;18.88;50.68;101480.09;5581447;31;32360;-57
2023/10/05 10:11:01;;;;;;;4.22;2.22;;;;;;;19.10;52.24;101465.66;5584651;31;33604;-57
2023/10/05 10:14:15;;;;;;;7.03;2.12;;;;;;;19.08;51.36;101460.53;5581798;31;33894;-57
2023/10/05 10:17:27;;;;;;;4.87;2.00;;;;;;;19.14;47.37;101453.03;5584855;31;33612;-58
2023/10/05 10:20:37;;;;;;;3.55;1.87;;;;;;;19.20;47.02;101452.62;5584335;31;34462;-57
2023/10/05 10:23:40;;;;;;;6.25;2.12;;;;;;;19.28;45.45;101447.53;5580597;31;34018;-56
2023/10/05 10:27:15;;;;;;;5.75;2.00;;;;;;;19.30;46.00;101446.09;5588372;31;33641;-57
2023/10/05 10:30:17;;;;;;;3.55;1.80;;;;;;;19.32;45.10;101446.59;5579317;31;34336;-57
2023/10/05 10:33:27;;;;;;;5.70;2.35;;;;;;;19.40;50.55;101440.41;5574204;31;34355;-57
2023/10/05 10:36:46;;;;;;;6.00;1.92;;;;;;;19.44;48.87;101440.56;5577936;31;33649;-56
2023/10/05 10:39:49;;;;;;;7.05;1.80;;;;;;;19.50;49.15;101436.56;5575924;31;33687;-57
2023/10/05 10:46:13;;;;;;;3.50;1.98;;;;;;;19.45;46.77;101423.13;5577878;31;33573;-56
2023/10/05 10:49:19;;;;;;;5.47;2.17;;;;;;;19.50;44.64;101422.97;5568353;31;34141;-56
2023/10/05 10:52:21;;;;;;;3.55;1.90;;;;;;;19.56;45.47;101419.00;5583997;31;33694;-56
2023/10/05 10:55:42;;;;;;;4.10;2.10;;;;;;;19.54;45.73;101402.22;5581477;31;34298;-57
2023/10/05 10:58:44;;;;;;;4.18;2.12;;;;;;;19.53;47.93;101399.78;5574676;31;34316;-58
2023/10/05 11:01:53;;;;;;;3.83;1.90;;;;;;;19.51;52.84;101397.41;5585821;31;33744;-56
2023/10/05 11:05:03;;;;;;;4.18;2.08;;;;;;;19.46;45.58;101389.37;5580216;31;34093;-56
2023/10/05 11:08:08;;;;;;;5.97;2.17;;;;;;;19.44;44.32;101386.97;5574238;31;33628;-57
2023/10/05 11:11:19;;;;;;;4.75;2.20;;;;;;;19.48;46.01;101381.72;5581508;31;33718;-56
2023/10/05 11:14:28;;;;;;;6.05;2.33;;;;;;;19.51;45.46;101377.56;5578007;31;33346;-56
2023/10/05 11:17:34;;;;;;;3.90;2.10;;;;;;;19.55;49.11;101376.59;5582296;31;33581;-56
2023/10/05 11:20:37;;;;;;;3.45;1.73;;;;;;;19.73;51.84;101373.94;5579754;31;33864;-56
2023/10/05 11:23:56;;;;;;;5.00;2.12;;;;;;;19.67;52.53;101362.44;5577348;31;33687;-56
2023/10/05 11:30:05;;;;;;;4.05;1.90;;;;;;;19.63;45.53;101361.41;5574685;31;33855;-56
2023/10/05 11:33:23;;;;;;;6.07;2.30;;;;;;;19.64;45.37;101357.62;5586434;31;32279;-57
2023/10/05 11:36:33;;;;;;;6.75;1.70;;;;;;;19.65;44.33;101348.34;5582395;31;33645;-57
2023/10/05 11:39:39;;;;;;;4.82;2.08;;;;;;;19.69;44.85;101346.56;5578080;31;33697;-57
2023/10/05 11:42:48;;;;;;;4.22;1.98;;;;;;;19.77;47.17;101339.53;5576756;31;33879;-57
2023/10/05 11:49:31;;;;;;;3.90;1.85;;;;;;;19.88;44.79;101344.38;5577324;31;31633;-57
2023/10/05 11:52:38;;;;;;;5.43;2.25;;;;;;;20.03;59.24;101329.47;5571550;31;33613;-57
2023/10/05 11:55:41;;;;;;;4.40;1.95;;;;;;;19.98;49.26;101326.91;5576221;31;33758;-57
2023/10/05 11:58:46;;;;;;;3.67;1.70;;;;;;;19.96;48.02;101326.44;5574349;31;33677;-57
2023/10/05 12:01:51;;;;;;;5.43;1.90;;;;;;;19.91;49.12;101321.16;5580578;31;33739;-57
2023/10/05 12:04:54;;;;;;;6.25;1.70;;;;;;;19.91;47.04;101318.44;5579801;31;33826;-57
2023/10/05 12:07:59;;;;;;;5.55;1.70;;;;;;;19.94;49.41;101315.88;5581016;31;34200;-57
2023/10/05 12:11:02;;;;;;;4.57;2.10;;;;;;;20.00;51.35;101316.53;5578815;31;33569;-57
2023/10/05 12:14:05;;;;;;;4.85;2.35;;;;;;;19.95;46.26;101311.22;5586538;31;33747;-57
2023/10/05 12:17:08;;;;;;;3.78;2.00;;;;;;;20.00;50.52;101313.81;5582938;31;33473;-57
2023/10/05 12:20:13;;;;;;;5.68;1.90;;;;;;;20.03;47.93;101304.16;5585243;31;33605;-57
2023/10/05 12:23:17;;;;;;;3.83;2.10;;;;;;;20.07;45.46;101302.44;5582333;31;33169;-58
2023/10/05 12:26:21;;;;;;;5.20;1.70;;;;;;;20.10;45.67;101305.31;5584639;31;34400;-58
2023/10/05 12:29:24;;;;;;;6.22;2.05;;;;;;;20.22;43.96;101299.19;5579418;31;33645;-58
2023/10/05 12:32:27;;;;;;;4.90;2.17;;;;;;;20.25;45.21;101290.38;5595639;31;33733;-58
2023/10/05 12:35:30;;;;;;;3.33;1.92;;;;;;;20.26;45.10;101280.28;5576184;31;33722;-58
2023/10/05 12:38:32;;;;;;;3.83;2.00;;;;;;;20.32;48.08;101281.72;5578193;31;34054;-58
2023/10/05 12:41:36;;;;;;;4.87;2.00;;;;;;;20.39;46.27;101273.84;5585990;31;33642;-56
2023/10/05 12:44:39;;;;;;;3.20;2.00;;;;;;;20.37;49.97;101273.38;5574369;31;34266;-56
2023/10/05 12:47:42;;;;;;;4.65;2.00;;;;;;;20.38;51.08;101266.81;5568170;31;34255;-56
2023/10/05 12:50:45;;;;;;;2.65;1.65;;;;;;;20.34;45.58;101272.09;5581508;31;34258;-55
2023/10/05 12:53:47;;;;;;;3.95;2.10;;;;;;;20.32;44.83;101255.28;5578995;31;33614;-56
2023/10/05 12:56:50;;;;;;;3.08;1.85;;;;;;;20.33;48.29;101265.06;5583794;31;34171;-56
2023/10/05 12:59:57;;;;;;;3.72;1.80;;;;;;;20.33;45.59;101258.78;5582814;31;33598;-55
2023/10/05 13:03:00;;;;;;;3.35;2.00;;;;;;;20.33;46.63;101256.91;5584275;31;32299;-56
2023/10/05 13:06:10;;;;;;;5.37;2.25;;;;;;;20.33;46.27;101261.53;5587290;31;34035;-55
2023/10/05 13:09:13;;;;;;;3.00;1.70;;;;;;;20.35;45.40;101259.28;5588106;31;33731;-56
2023/10/05 13:12:16;;;;;;;3.55;1.80;;;;;;;20.39;47.37;101255.56;5571270;31;33645;-56
2023/10/05 13:15:24;;;;;;;8.80;2.20;;;;;;;20.41;47.40;101247.88;5580233;31;33606;-56
2023/10/05 13:18:27;;;;;;;3.55;2.10;;;;;;;20.39;46.70;101250.13;5581605;31;33728;-56
2023/10/05 13:21:30;;;;;;;4.57;1.87;;;;;;;20.44;46.00;101248.38;5575825;31;33662;-55
2023/10/05 13:24:33;;;;;;;5.05;2.12;;;;;;;20.41;44.56;101242.44;5582174;31;34464;-55
2023/10/05 13:27:36;;;;;;;3.45;1.60;;;;;;;20.42;48.53;101230.41;5583623;31;33826;-56
2023/10/05 13:30:41;;;;;;;4.15;1.92;;;;;;;20.38;46.36;101231.41;5581930;31;33652;-55
2023/10/05 13:33:47;;;;;;;10.07;2.12;;;;;;;20.37;48.24;101227.09;5576046;31;33885;-55
2023/10/05 13:36:50;;;;;;;3.50;2.17;;;;;;;20.34;48.02;101223.09;5583891;31;33709;-56
2023/10/05 13:39:53;;;;;;;3.42;1.80;;;;;;;20.30;46.23;101218.62;5585300;31;33891;-55
2023/10/05 13:42:55;;;;;;;6.70;1.90;;;;;;;20.39;48.47;101222.91;5576638;31;33336;-56
2023/10/05 13:46:04;;;;;;;7.45;2.28;;;;;;;20.39;46.21;101217.44;5576374;31;33698;-55
2023/10/05 13:49:08;;;;;;;4.10;1.98;;;;;;;20.42;49.97;101211.34;5573526;31;33755;-56
2023/10/05 13:52:20;;;;;;;8.63;2.50;;;;;;;20.45;44.80;101207.19;5577966;31;33187;-56
2023/10/05 13:55:25;;;;;;;5.37;1.95;;;;;;;20.54;45.36;101213.44;5591832;31;34430;-56
2023/10/05 13:58:28;;;;;;;5.97;1.90;;;;;;;20.54;46.35;101212.63;5578272;31;33136;-57
2023/10/05 14:01:42;;;;;;;6.70;2.47;;;;;;;20.59;46.01;101213.22;5583074;31;33676;-57
2023/10/05 14:04:45;;;;;;;4.10;2.08;;;;;;;20.59;46.02;101210.50;5586467;31;33420;-57
2023/10/05 14:07:51;;;;;;;3.50;2.20;;;;;;;20.61;48.14;101212.91;5584326;31;34359;-56
2023/10/05 14:10:56;;;;;;;5.20;2.17;;;;;;;20.61;47.69;101196.56;5578457;31;34579;-57
2023/10/05 14:13:58;;;;;;;7.12;2.72;;;;;;;20.62;46.42;101200.88;5585562;31;34356;-57
2023/10/05 14:17:06;;;;;;;5.80;2.47;;;;;;;20.64;47.58;101202.16;5582902;31;34301;-57
2023/10/05 14:20:11;;;;;;;6.95;2.10;;;;;;;20.61;47.15;101193.84;5582078;31;34357;-58
2023/10/05 14:23:15;;;;;;;4.57;2.12;;;;;;;20.63;47.20;101192.41;5584634;31;34424;-58
2023/10/05 14:26:19;;;;;;;4.57;2.30;;;;;;;20.61;46.40;101183.75;5582295;31;33766;-56
2023/10/05 14:29:34;;;;;;;6.75;2.50;;;;;;;20.63;47.71;101189.69;5579829;31;33352;-58
2023/10/05 14:32:38;;;;;;;10.63;2.97;;;;;;;20.68;46.07;101185.16;5583869;31;33744;-58
2023/10/05 14:35:40;;;;;;;7.43;2.50;;;;;;;20.64;49.67;101188.53;5585981;31;33693;-57
2023/10/05 14:38:42;;;;;;;5.85;2.42;;;;;;;20.58;47.20;101189.06;5590741;31;33824;-57
2023/10/05 14:41:45;;;;;;;6.28;2.45;;;;;;;20.57;47.10;101191.00;5590133;31;33716;-57
2023/10/05 14:44:47;;;;;;;6.78;2.22;;;;;;;20.57;47.54;101188.25;5589893;31;34434;-58
2023/10/05 14:47:51;;;;;;;5.37;2.30;;;;;;;20.50;47.49;101185.22;5578880;31;34180;-56
2023/10/05 14:50:53;;;;;;;6.82;2.55;;;;;;;20.47;48.69;101185.87;5568939;31;33688;-57
2023/10/05 14:53:56;;;;;;;9.40;2.60;;;;;;;20.44;47.60;101183.81;5568854;32;33700;-57
2023/10/05 14:56:59;;;;;;;5.68;2.28;;;;;;;20.48;46.89;101183.94;5568761;32;33688;-57
2023/10/05 15:00:07;;;;;;;9.82;2.60;;;;;;;20.46;51.56;101186.19;5569024;32;33721;-58
2023/10/05 15:03:09;;;;;;;6.50;2.55;;;;;;;20.50;48.27;101184.44;5568833;32;34499;-58
2023/10/05 15:06:13;;;;;;;5.72;2.37;;;;;;;20.40;47.27;101189.13;5568814;32;33604;-58
2023/10/05 15:09:25;;;;;;;5.55;2.50;;;;;;;20.40;47.03;101182.87;5569194;32;33644;-58
2023/10/05 15:12:28;;;;;;;4.15;1.92;;;;;;;20.38;47.67;101180.47;5569104;32;33702;-58
2023/10/05 15:15:30;;;;;;;5.70;2.50;;;;;;;20.32;48.30;101186.41;5569088;32;33626;-58
2023/10/05 15:18:34;;;;;;;8.02;2.58;;;;;;;20.29;48.24;101187.06;5569213;32;33585;-58
2023/10/05 15:21:37;;;;;;;6.37;2.22;;;;;;;20.31;48.58;101184.81;5568973;32;34461;-58
2023/10/05 15:24:40;;;;;;;4.80;2.12;;;;;;;20.29;46.90;101178.91;5569095;32;34191;-58
2023/10/05 15:27:42;;;;;;;4.28;2.05;;;;;;;20.25;47.78;101178.75;5569008;32;33868;-58
2023/10/05 15:30:46;;;;;;;5.87;2.12;;;;;;;20.25;46.88;101180.69;5568742;32;34205;-58
2023/10/05 15:33:48;;;;;;;6.60;2.20;;;;;;;20.19;46.82;101174.59;5568848;32;33605;-58
2023/10/05 15:36:54;;;;;;;6.40;2.22;;;;;;;20.15;47.92;101176.37;5568887;32;33698;-58
2023/10/05 15:39:57;;;;;;;4.20;2.28;;;;;;;20.13;47.25;101167.72;5568248;32;34383;-58
